Time;durP1;ratioP1;P1;durP2;ratioP2;P2;SDS_P1;SDS_P2;PMS_P1;PMS_P2;Temp;Humidity;BMP_temperature;BMP_pressure;BME280_temperature;BME280_humidity;BME280_pressure;Samples;Min_cycle;Max_cycle;Signal;HPM_P1;HPM_P2
2022/05/03 00:01:14;;;;;;;6.25;4.05;;;11.80;99.90;;;;;;4999211;28;20042;-73
2022/05/03 00:03:50;;;;;;;7.93;4.10;;;11.80;99.90;;;;;;5008137;28;20121;-72
2022/05/03 00:06:39;;;;;;;6.65;3.65;;;11.70;99.90;;;;;;4996846;28;20042;-73
2022/05/03 00:09:07;;;;;;;7.57;4.38;;;11.70;99.90;;;;;;5001972;28;20034;-73
2022/05/03 00:11:40;;;;;;;6.65;4.05;;;11.80;99.90;;;;;;5006656;28;20041;-73
2022/05/03 00:14:20;;;;;;;6.85;4.15;;;11.90;99.90;;;;;;4999361;28;20053;-73
2022/05/03 00:16:48;;;;;;;8.90;4.65;;;11.90;99.90;;;;;;5007946;28;20515;-72
2022/05/03 00:19:15;;;;;;;6.05;3.70;;;11.70;99.90;;;;;;4996748;28;20070;-73
2022/05/03 00:21:41;;;;;;;6.35;3.90;;;11.50;99.90;;;;;;5002880;28;20040;-72
2022/05/03 00:24:07;;;;;;;5.60;4.10;;;11.50;99.90;;;;;;4998864;28;20121;-72
2022/05/03 00:26:34;;;;;;;12.50;4.78;;;11.60;99.90;;;;;;4995936;28;20538;-73
2022/05/03 00:29:01;;;;;;;8.15;4.32;;;11.60;99.90;;;;;;5005986;28;20380;-73
2022/05/03 00:31:28;;;;;;;7.30;4.03;;;11.80;99.90;;;;;;4995828;28;20448;-73
2022/05/03 00:33:55;;;;;;;6.30;4.15;;;12.00;99.90;;;;;;5004983;28;20388;-73
2022/05/03 00:36:22;;;;;;;6.80;3.67;;;12.10;99.80;;;;;;5009122;28;20084;-72
2022/05/03 00:38:48;;;;;;;11.30;4.13;;;11.90;99.90;;;;;;5006421;28;20030;-73
2022/05/03 00:41:29;;;;;;;8.18;4.30;;;11.90;99.90;;;;;;5001516;28;20026;-73
2022/05/03 00:47:18;;;;;;;6.35;3.25;;;11.70;99.90;;;;;;5004336;28;20092;-73
2022/05/03 00:50:01;;;;;;;7.95;4.18;;;11.70;99.90;;;;;;5002529;28;20476;-73
2022/05/03 00:52:47;;;;;;;8.38;4.15;;;11.60;99.90;;;;;;5000045;28;20367;-73
2022/05/03 00:55:40;;;;;;;8.68;4.82;;;11.50;99.90;;;;;;5001031;28;20480;-72
2022/05/03 00:58:35;;;;;;;6.88;4.28;;;11.40;99.90;;;;;;5001679;28;20034;-73
2022/05/03 01:01:05;;;;;;;6.85;3.95;;;11.50;99.90;;;;;;5007354;28;20042;-73
2022/05/03 01:03:46;;;;;;;6.55;4.03;;;11.30;99.90;;;;;;5001650;28;20046;-73
2022/05/03 01:06:41;;;;;;;8.35;4.05;;;11.30;99.90;;;;;;4999059;28;20381;-73
2022/05/03 01:09:11;;;;;;;7.35;4.28;;;11.20;99.90;;;;;;5003341;28;20025;-73
2022/05/03 01:11:52;;;;;;;9.40;4.57;;;11.10;99.90;;;;;;5006094;28;20062;-72
2022/05/03 01:14:39;;;;;;;7.25;3.83;;;11.40;99.90;;;;;;5005251;28;20029;-72
2022/05/03 01:17:22;;;;;;;5.93;4.00;;;11.20;99.90;;;;;;5002074;28;20030;-73
2022/05/03 01:19:59;;;;;;;7.35;4.65;;;11.10;99.90;;;;;;5006356;28;20400;-73
2022/05/03 01:22:49;;;;;;;7.18;3.75;;;11.20;99.90;;;;;;5007956;28;20044;-73
2022/05/03 01:25:24;;;;;;;6.78;3.85;;;11.30;99.90;;;;;;4995856;28;20177;-72
2022/05/03 01:28:14;;;;;;;5.90;4.15;;;11.50;99.90;;;;;;5009949;28;20030;-73
2022/05/03 01:30:47;;;;;;;7.70;4.60;;;11.40;99.90;;;;;;5002515;28;20041;-73
2022/05/03 01:33:18;;;;;;;7.00;4.00;;;11.50;99.90;;;;;;5004511;28;20033;-73
2022/05/03 01:35:50;;;;;;;6.18;3.70;;;11.50;99.90;;;;;;5002406;28;20037;-73
2022/05/03 01:38:37;;;;;;;7.10;4.30;;;11.30;99.90;;;;;;5005316;28;20050;-73
2022/05/03 01:41:12;;;;;;;5.82;3.60;;;11.20;99.90;;;;;;5002475;28;20107;-73
2022/05/03 01:43:46;;;;;;;6.53;3.42;;;11.00;99.90;;;;;;4999556;28;20045;-72
2022/05/03 01:46:27;;;;;;;9.43;4.00;;;10.90;99.90;;;;;;5001169;28;20037;-73
2022/05/03 01:52:13;;;;;;;5.25;3.60;;;11.20;99.90;;;;;;4996786;28;20073;-72
2022/05/03 01:55:03;;;;;;;6.55;3.50;;;11.30;99.90;;;;;;5006125;28;20080;-73
2022/05/03 01:57:53;;;;;;;8.18;3.85;;;11.00;99.90;;;;;;5008599;28;20056;-73
2022/05/03 02:00:22;;;;;;;7.65;3.67;;;10.90;99.90;;;;;;5006098;28;20026;-72
2022/05/03 02:03:01;;;;;;;4.40;2.88;;;10.90;99.90;;;;;;4995264;28;20099;-72
2022/05/03 02:06:00;;;;;;;5.65;3.72;;;10.90;99.90;;;;;;5002550;28;20038;-72
2022/05/03 02:08:38;;;;;;;10.40;4.10;;;10.60;99.90;;;;;;5003520;28;20117;-72
2022/05/03 02:11:15;;;;;;;6.90;3.50;;;10.30;99.90;;;;;;5006829;28;20416;-72
2022/05/03 02:16:39;;;;;;;5.93;4.30;;;10.10;99.90;;;;;;4998595;28;20044;-73
2022/05/03 02:19:31;;;;;;;7.78;3.97;;;10.20;99.90;;;;;;5004261;28;20406;-73
2022/05/03 02:22:23;;;;;;;4.82;3.20;;;10.30;99.90;;;;;;5002431;28;20040;-73
2022/05/03 02:24:52;;;;;;;7.03;4.70;;;10.50;99.90;;;;;;5000893;28;20053;-73
2022/05/03 02:27:21;;;;;;;7.80;4.78;;;10.30;99.90;;;;;;5013601;28;20026;-73
2022/05/03 02:29:49;;;;;;;7.22;3.70;;;10.20;99.90;;;;;;5003321;28;20038;-73
2022/05/03 02:32:47;;;;;;;7.25;4.50;;;10.20;99.90;;;;;;5011809;28;20172;-73
2022/05/03 02:35:20;;;;;;;7.30;3.92;;;10.20;99.90;;;;;;4985776;28;20100;-73
2022/05/03 02:37:56;;;;;;;5.80;3.25;;;10.20;99.90;;;;;;4998859;28;20087;-72
2022/05/03 02:40:27;;;;;;;6.53;4.28;;;10.20;99.90;;;;;;4992600;28;20121;-73
2022/05/03 02:42:55;;;;;;;7.07;4.50;;;10.10;99.90;;;;;;4998144;28;20483;-72
2022/05/03 02:45:21;;;;;;;7.82;4.95;;;10.10;99.90;;;;;;5001660;28;20034;-72
2022/05/03 02:47:59;;;;;;;6.30;3.90;;;10.30;99.90;;;;;;5003955;28;20040;-73
2022/05/03 02:50:29;;;;;;;6.22;4.22;;;10.10;99.90;;;;;;4995061;28;20508;-73
2022/05/03 02:53:09;;;;;;;6.05;3.90;;;10.00;99.90;;;;;;4991324;28;20462;-72
2022/05/03 02:55:45;;;;;;;5.90;3.60;;;9.90;99.90;;;;;;5008933;28;20412;-73
2022/05/03 02:58:59;;;;;;;6.30;3.50;;;9.80;99.90;;;;;;4982727;28;20034;-73
2022/05/03 03:01:49;;;;;;;7.82;3.78;;;9.80;99.90;;;;;;4973683;28;20487;-72
2022/05/03 03:04:44;;;;;;;6.82;3.60;;;9.80;99.90;;;;;;4989126;28;20142;-71
2022/05/03 03:07:16;;;;;;;7.05;4.28;;;10.00;99.90;;;;;;4984750;28;20096;-72
2022/05/03 03:10:03;;;;;;;8.32;4.35;;;9.90;99.90;;;;;;4977424;28;20187;-72
2022/05/03 03:12:38;;;;;;;6.97;4.05;;;9.90;99.90;;;;;;4985588;28;20042;-71
2022/05/03 03:15:08;;;;;;;8.55;4.68;;;10.00;99.90;;;;;;4976255;28;20105;-71
2022/05/03 03:17:55;;;;;;;8.23;4.78;;;9.90;99.90;;;;;;4986157;28;20035;-71
2022/05/03 03:20:25;;;;;;;5.97;3.67;;;9.80;99.90;;;;;;4991681;28;20101;-71
2022/05/03 03:22:51;;;;;;;9.13;4.10;;;9.70;99.90;;;;;;4997021;28;20534;-71
2022/05/03 03:25:19;;;;;;;8.05;4.20;;;9.60;99.90;;;;;;4998799;28;20049;-71
2022/05/03 03:27:51;;;;;;;8.45;4.05;;;9.70;99.90;;;;;;5003728;28;20034;-71
2022/05/03 03:30:17;;;;;;;6.63;4.70;;;9.60;99.90;;;;;;4994382;28;20038;-70
2022/05/03 03:32:48;;;;;;;9.48;4.38;;;9.70;99.90;;;;;;4993938;28;20125;-72
2022/05/03 03:35:16;;;;;;;9.82;4.75;;;9.80;99.90;;;;;;4994247;28;20141;-71
2022/05/03 03:37:46;;;;;;;6.78;4.22;;;9.70;99.90;;;;;;4997065;28;20041;-71
2022/05/03 03:40:14;;;;;;;6.55;3.67;;;9.70;99.90;;;;;;4993240;28;20029;-71
2022/05/03 03:42:41;;;;;;;8.85;4.60;;;9.90;99.90;;;;;;4997550;28;20205;-71
2022/05/03 03:45:08;;;;;;;6.03;3.85;;;9.70;99.90;;;;;;4975713;28;20057;-70
2022/05/03 03:47:39;;;;;;;6.60;4.20;;;9.60;99.90;;;;;;4976621;28;20084;-70
2022/05/03 03:50:05;;;;;;;6.40;3.92;;;9.70;99.90;;;;;;4981265;28;20105;-71
2022/05/03 03:52:33;;;;;;;9.38;5.22;;;9.60;99.90;;;;;;4999549;28;20484;-71
2022/05/03 03:55:00;;;;;;;5.65;3.72;;;9.70;99.90;;;;;;4993387;28;20045;-71
2022/05/03 03:57:26;;;;;;;6.90;4.65;;;9.60;99.90;;;;;;4995652;28;20041;-70
2022/05/03 03:59:52;;;;;;;7.15;4.03;;;9.60;99.90;;;;;;4996893;28;20922;-71
2022/05/03 04:02:19;;;;;;;7.53;4.72;;;9.80;99.90;;;;;;4997137;28;20042;-71
2022/05/03 04:04:48;;;;;;;6.38;4.22;;;9.80;99.90;;;;;;4994847;28;20034;-71
2022/05/03 04:07:13;;;;;;;6.13;3.50;;;9.70;99.90;;;;;;5001207;28;20069;-71
2022/05/03 04:09:39;;;;;;;6.07;3.30;;;9.90;99.90;;;;;;5000185;28;20115;-71
2022/05/03 04:12:05;;;;;;;6.47;4.03;;;9.90;99.90;;;;;;4996679;28;20361;-71
2022/05/03 04:14:31;;;;;;;6.65;4.25;;;9.80;99.90;;;;;;4996467;28;20033;-70
2022/05/03 04:16:57;;;;;;;7.80;4.25;;;9.80;99.90;;;;;;5000400;28;20034;-71
2022/05/03 04:19:23;;;;;;;8.60;4.53;;;9.70;99.90;;;;;;4990069;28;20037;-70
2022/05/03 04:21:50;;;;;;;8.95;5.15;;;9.70;99.90;;;;;;5000621;28;20461;-71
2022/05/03 04:24:16;;;;;;;8.00;4.20;;;9.70;99.90;;;;;;4992290;28;20092;-71
2022/05/03 04:26:42;;;;;;;6.95;4.45;;;9.70;99.90;;;;;;4992430;28;20460;-71
2022/05/03 04:29:08;;;;;;;6.88;4.00;;;9.80;99.90;;;;;;4987110;28;20029;-71
2022/05/03 04:31:35;;;;;;;8.80;4.60;;;9.80;99.90;;;;;;4992606;28;20056;-70
2022/05/03 04:34:03;;;;;;;7.65;4.15;;;9.90;99.90;;;;;;4980544;28;20523;-71
2022/05/03 04:36:33;;;;;;;8.13;3.88;;;10.10;99.90;;;;;;4982419;28;20090;-71
2022/05/03 04:39:00;;;;;;;7.15;4.43;;;10.30;99.90;;;;;;4997735;28;20044;-71
2022/05/03 04:41:26;;;;;;;6.63;4.00;;;10.20;99.90;;;;;;4997740;28;20079;-71
2022/05/03 04:43:52;;;;;;;8.60;4.07;;;10.00;99.90;;;;;;4993989;28;20121;-71
2022/05/03 04:46:20;;;;;;;8.82;4.88;;;10.10;99.90;;;;;;4996432;28;20099;-71
2022/05/03 04:48:46;;;;;;;7.15;4.60;;;9.90;99.90;;;;;;4991695;28;20029;-70
2022/05/03 04:51:16;;;;;;;6.60;4.38;;;9.90;99.90;;;;;;4990967;28;20473;-70
2022/05/03 04:53:42;;;;;;;6.65;4.43;;;9.80;99.90;;;;;;4996847;28;21074;-70
2022/05/03 04:56:08;;;;;;;6.00;3.90;;;9.70;99.90;;;;;;4982719;28;20113;-70
2022/05/03 04:58:33;;;;;;;9.63;4.90;;;9.80;99.90;;;;;;4985136;28;20671;-70
2022/05/03 05:01:00;;;;;;;8.50;4.70;;;9.80;99.90;;;;;;4995905;28;20033;-70
2022/05/03 05:03:26;;;;;;;7.63;4.43;;;10.00;99.90;;;;;;4988066;28;20128;-71
2022/05/03 05:05:51;;;;;;;7.88;4.50;;;10.00;99.90;;;;;;5001578;28;20165;-71
2022/05/03 05:08:17;;;;;;;9.77;4.65;;;10.10;99.90;;;;;;5000795;28;20030;-70
2022/05/03 05:10:43;;;;;;;6.20;4.10;;;10.20;99.90;;;;;;4994098;28;20159;-70
2022/05/03 05:13:09;;;;;;;10.05;4.03;;;10.20;99.90;;;;;;4994848;28;20061;-70
2022/05/03 05:15:35;;;;;;;6.50;4.00;;;10.10;99.90;;;;;;4999419;28;20046;-71
2022/05/03 05:18:01;;;;;;;6.00;4.07;;;10.10;99.90;;;;;;4992774;28;20033;-71
2022/05/03 05:20:26;;;;;;;6.50;4.30;;;10.10;99.90;;;;;;4987129;28;20040;-71
2022/05/03 05:22:52;;;;;;;7.13;4.70;;;10.10;99.90;;;;;;4995562;28;20091;-71
2022/05/03 05:25:18;;;;;;;7.28;4.70;;;10.10;99.90;;;;;;4998240;28;20050;-71
2022/05/03 05:27:44;;;;;;;6.47;4.28;;;10.20;99.90;;;;;;4997299;28;20030;-70
2022/05/03 05:30:11;;;;;;;5.90;3.05;;;10.20;99.90;;;;;;4994746;28;21034;-69
2022/05/03 05:32:37;;;;;;;6.97;3.67;;;10.50;99.90;;;;;;4996053;28;20107;-70
2022/05/03 05:35:06;;;;;;;6.72;3.53;;;10.50;99.90;;;;;;4987728;28;20041;-71
2022/05/03 05:37:32;;;;;;;6.68;3.60;;;10.60;99.90;;;;;;5005616;28;20049;-70
2022/05/03 05:39:58;;;;;;;7.30;3.72;;;10.80;99.90;;;;;;4995310;28;20030;-72
2022/05/03 05:42:25;;;;;;;6.32;3.40;;;10.70;99.90;;;;;;5002005;28;20844;-70
2022/05/03 05:44:51;;;;;;;7.70;3.92;;;10.70;99.90;;;;;;5002989;28;20129;-70
2022/05/03 05:47:18;;;;;;;6.72;3.33;;;10.80;99.90;;;;;;5011773;28;20113;-70
2022/05/03 05:49:44;;;;;;;6.90;4.40;;;10.90;99.90;;;;;;5009988;28;20072;-71
2022/05/03 05:54:54;;;;;;;;;;;10.90;99.90;;;;;;5000489;28;20112;-71
2022/05/03 05:57:20;;;;;;;5.70;3.53;;;11.00;99.90;;;;;;5002399;28;19953;-70
2022/05/03 05:59:46;;;;;;;7.45;3.58;;;11.10;99.90;;;;;;5003351;28;20034;-71
2022/05/03 06:02:13;;;;;;;8.57;3.72;;;11.10;99.90;;;;;;5018420;28;20053;-70
2022/05/03 06:04:38;;;;;;;6.10;4.10;;;11.20;99.90;;;;;;5018089;28;20029;-71
2022/05/03 06:07:04;;;;;;;7.15;3.85;;;11.30;99.90;;;;;;5006681;28;20495;-71
2022/05/03 06:09:29;;;;;;;6.10;4.20;;;11.50;99.90;;;;;;5005704;28;20044;-70
2022/05/03 06:11:55;;;;;;;7.72;3.67;;;11.60;99.90;;;;;;5004201;28;20034;-70
2022/05/03 06:14:21;;;;;;;6.05;3.55;;;11.60;99.90;;;;;;5000459;28;20034;-70
2022/05/03 06:16:57;;;;;;;6.90;3.60;;;11.80;99.90;;;;;;5004429;28;20637;-70
2022/05/03 06:19:23;;;;;;;6.22;3.80;;;11.90;99.90;;;;;;5004254;28;20049;-70
2022/05/03 06:21:49;;;;;;;4.53;2.97;;;12.00;99.90;;;;;;5006526;28;20714;-70
2022/05/03 06:24:15;;;;;;;8.32;3.65;;;12.20;99.90;;;;;;4997933;28;20036;-70
2022/05/03 06:26:41;;;;;;;7.38;3.47;;;12.40;99.90;;;;;;5000011;28;20033;-70
2022/05/03 06:29:09;;;;;;;6.15;2.90;;;12.50;99.90;;;;;;4992108;28;20127;-70
2022/05/03 06:31:44;;;;;;;9.63;3.35;;;12.60;99.90;;;;;;5001551;28;20045;-71
2022/05/03 06:34:10;;;;;;;6.70;3.58;;;12.70;99.70;;;;;;5002354;28;20155;-71
2022/05/03 06:36:36;;;;;;;8.80;2.83;;;12.90;99.40;;;;;;5008073;28;20106;-70
2022/05/03 06:39:03;;;;;;;6.22;3.53;;;13.00;99.10;;;;;;5006304;28;20030;-70
2022/05/03 06:41:29;;;;;;;6.90;3.00;;;13.20;99.00;;;;;;5002944;28;20034;-70
2022/05/03 06:43:58;;;;;;;5.85;2.80;;;13.30;99.10;;;;;;5009067;28;20037;-70
2022/05/03 06:46:25;;;;;;;5.93;3.55;;;13.40;98.50;;;;;;5005886;28;20034;-71
2022/05/03 06:48:51;;;;;;;4.63;2.70;;;13.60;98.60;;;;;;5007278;28;20113;-71
2022/05/03 06:51:16;;;;;;;7.72;3.63;;;13.70;98.20;;;;;;5002005;28;20149;-71
2022/05/03 06:53:42;;;;;;;6.97;3.60;;;14.00;97.90;;;;;;5000118;28;20027;-70
2022/05/03 06:56:07;;;;;;;7.15;3.25;;;14.30;97.80;;;;;;5002853;28;20029;-70
2022/05/03 06:58:33;;;;;;;6.50;2.95;;;14.40;97.10;;;;;;5007089;28;20033;-70
2022/05/03 07:01:13;;;;;;;5.50;2.97;;;14.50;97.20;;;;;;5005573;28;20025;-71
2022/05/03 07:03:40;;;;;;;7.93;3.30;;;14.60;96.80;;;;;;5005058;28;20050;-70
2022/05/03 07:06:07;;;;;;;5.05;3.22;;;15.20;96.70;;;;;;4999013;28;20064;-71
2022/05/03 07:08:34;;;;;;;5.72;2.50;;;16.20;96.00;;;;;;5005432;28;20040;-71
2022/05/03 07:10:59;;;;;;;6.53;3.10;;;17.40;94.30;;;;;;4992512;28;20121;-70
2022/05/03 07:13:26;;;;;;;5.25;2.83;;;18.80;92.40;;;;;;4995590;28;20132;-70
2022/05/03 07:15:55;;;;;;;6.10;3.38;;;20.00;91.00;;;;;;4995434;28;20038;-70
2022/05/03 07:23:51;;;;;;;4.35;2.45;;;21.00;86.70;;;;;;5004338;28;20076;-71
2022/05/03 07:26:17;;;;;;;5.63;3.05;;;21.50;86.10;;;;;;4996090;28;20445;-71
2022/05/03 07:28:43;;;;;;;9.13;2.72;;;22.20;85.10;;;;;;5000331;28;20018;-71
2022/05/03 07:31:09;;;;;;;6.00;2.78;;;22.50;84.60;;;;;;5000931;28;20102;-70
2022/05/03 07:33:36;;;;;;;9.40;3.25;;;22.30;83.60;;;;;;5004930;28;20475;-70
2022/05/03 07:36:03;;;;;;;8.05;3.15;;;21.60;84.10;;;;;;5004314;28;20033;-71
2022/05/03 07:38:29;;;;;;;5.57;2.63;;;21.60;84.60;;;;;;5008358;28;20030;-71
2022/05/03 07:40:56;;;;;;;5.28;2.78;;;21.90;83.60;;;;;;5000996;28;20040;-69
2022/05/03 07:43:22;;;;;;;6.85;3.30;;;21.60;85.10;;;;;;5013139;28;20044;-69
2022/05/03 07:45:48;;;;;;;5.32;3.00;;;20.60;86.30;;;;;;5007655;28;20172;-69
2022/05/03 07:48:14;;;;;;;5.78;3.33;;;18.70;88.90;;;;;;5003322;28;20030;-69
2022/05/03 07:50:40;;;;;;;5.82;2.97;;;17.10;92.00;;;;;;5025837;28;20034;-72
2022/05/03 07:53:06;;;;;;;6.88;3.22;;;16.20;92.50;;;;;;5009000;28;20109;-70
2022/05/03 07:55:32;;;;;;;6.38;3.13;;;15.70;94.00;;;;;;5006648;28;20096;-68
2022/05/03 07:57:57;;;;;;;6.10;3.35;;;15.60;94.30;;;;;;5003602;28;20037;-68
2022/05/03 08:00:23;;;;;;;10.40;3.83;;;15.60;95.10;;;;;;5002001;28;20045;-69
2022/05/03 08:02:49;;;;;;;5.85;3.35;;;15.70;95.20;;;;;;5000023;28;20529;-68
2022/05/03 08:05:16;;;;;;;7.60;3.40;;;15.70;95.00;;;;;;5001024;28;20643;-66
2022/05/03 08:07:42;;;;;;;9.75;3.83;;;15.80;94.80;;;;;;5003583;28;20041;-67
2022/05/03 08:10:08;;;;;;;7.50;4.22;;;15.60;95.30;;;;;;4996865;28;20030;-67
2022/05/03 08:12:35;;;;;;;6.07;3.50;;;16.00;95.20;;;;;;5005951;28;20056;-67
2022/05/03 08:15:01;;;;;;;5.32;3.08;;;15.80;94.80;;;;;;4984764;28;20034;-68
2022/05/03 08:17:28;;;;;;;7.70;3.70;;;16.60;94.00;;;;;;4976868;28;21472;-69
2022/05/03 08:19:54;;;;;;;7.07;3.33;;;18.40;92.30;;;;;;4997588;28;20026;-69
2022/05/03 08:22:20;;;;;;;6.32;3.85;;;19.50;91.10;;;;;;5022326;28;20033;-69
2022/05/03 08:24:46;;;;;;;7.05;3.33;;;19.50;90.60;;;;;;4995086;28;20062;-69
2022/05/03 08:27:12;;;;;;;6.30;3.03;;;19.90;90.60;;;;;;4994458;28;20038;-68
2022/05/03 08:29:38;;;;;;;6.50;3.22;;;20.30;89.90;;;;;;5003010;28;20041;-69
2022/05/03 08:32:04;;;;;;;5.95;3.63;;;20.70;90.10;;;;;;5002893;28;20156;-69
2022/05/03 08:34:31;;;;;;;126.95;15.70;;;20.60;90.10;;;;;;4996051;28;20033;-69
2022/05/03 08:42:27;;;;;;;;;;;18.80;91.00;;;;;;5003757;28;20674;-68
2022/05/03 08:44:53;;;;;;;8.13;3.28;;;18.20;91.10;;;;;;5002654;28;19940;-69
2022/05/03 08:47:19;;;;;;;6.07;2.85;;;17.80;91.40;;;;;;5003936;28;20026;-69
2022/05/03 08:50:06;;;;;;;7.65;3.60;;;17.70;91.60;;;;;;4996871;28;20077;-69
2022/05/03 08:53:03;;;;;;;6.45;3.10;;;17.50;92.50;;;;;;4984682;28;20093;-70
2022/05/03 08:55:29;;;;;;;5.80;3.40;;;17.50;93.00;;;;;;4994907;28;20048;-69
2022/05/03 08:57:55;;;;;;;6.57;3.35;;;17.30;93.30;;;;;;4993582;28;20026;-69
2022/05/03 09:00:21;;;;;;;5.60;3.15;;;17.80;92.80;;;;;;5027091;28;20030;-68
2022/05/03 09:02:55;;;;;;;5.10;3.10;;;17.90;92.50;;;;;;5000314;28;20117;-69
2022/05/03 09:05:22;;;;;;;8.77;3.95;;;17.50;92.20;;;;;;5000965;28;20519;-71
2022/05/03 09:07:56;;;;;;;7.60;3.30;;;17.60;92.80;;;;;;5000704;28;20187;-68
2022/05/03 09:10:24;;;;;;;7.70;4.40;;;17.60;92.90;;;;;;5000613;28;20504;-69
2022/05/03 09:12:50;;;;;;;6.88;2.88;;;18.10;93.20;;;;;;4996914;28;20034;-68
2022/05/03 09:15:33;;;;;;;9.07;3.35;;;18.10;92.00;;;;;;5000831;28;20425;-68
2022/05/03 09:18:00;;;;;;;5.05;3.33;;;17.90;91.90;;;;;;4997348;28;20022;-69
2022/05/03 09:26:11;;;;;;;4.70;2.95;;;18.40;91.80;;;;;;4992735;28;20053;-70
2022/05/03 09:28:46;;;;;;;7.15;3.38;;;18.60;91.90;;;;;;4992940;28;20790;-71
2022/05/03 09:31:12;;;;;;;5.55;3.05;;;18.50;91.00;;;;;;4997916;28;20081;-71
2022/05/03 09:33:38;;;;;;;4.82;3.20;;;18.40;91.40;;;;;;5003200;28;20037;-71
2022/05/03 09:36:11;;;;;;;8.25;3.60;;;18.30;91.30;;;;;;4999817;28;20041;-71
2022/05/03 09:38:47;;;;;;;5.82;2.90;;;18.50;91.10;;;;;;4998409;28;20026;-70
2022/05/03 09:41:14;;;;;;;5.22;3.28;;;18.80;91.60;;;;;;4996176;28;20124;-71
2022/05/03 09:44:08;;;;;;;8.30;3.67;;;19.00;91.50;;;;;;5003347;28;20094;-71
2022/05/03 09:46:54;;;;;;;6.80;3.60;;;19.20;90.90;;;;;;4996773;28;20042;-71
2022/05/03 09:49:34;;;;;;;7.68;3.30;;;19.50;91.80;;;;;;5000897;28;20156;-71
2022/05/03 09:51:59;;;;;;;6.93;3.17;;;19.70;91.00;;;;;;4997965;28;20060;-71
2022/05/03 09:54:25;;;;;;;6.63;3.70;;;19.60;90.80;;;;;;5000092;28;20026;-71
2022/05/03 09:56:54;;;;;;;5.35;3.03;;;19.40;90.90;;;;;;5010415;28;20574;-71
2022/05/03 09:59:20;;;;;;;6.22;3.28;;;19.60;90.80;;;;;;5003924;28;20036;-71
2022/05/03 10:01:47;;;;;;;5.65;3.03;;;19.60;90.70;;;;;;4999431;28;20400;-71
2022/05/03 10:04:13;;;;;;;7.07;3.10;;;19.90;90.90;;;;;;5004681;28;20030;-71
2022/05/03 10:06:40;;;;;;;6.10;3.00;;;20.00;90.10;;;;;;5018459;28;20570;-71
2022/05/03 10:09:07;;;;;;;5.70;3.33;;;19.80;89.50;;;;;;5004310;28;20030;-71
2022/05/03 10:11:36;;;;;;;6.63;3.53;;;20.10;89.50;;;;;;5001191;28;20190;-71
2022/05/03 10:14:02;;;;;;;4.97;3.00;;;20.60;90.40;;;;;;5006165;28;20030;-71
2022/05/03 10:22:03;;;;;;;6.97;3.30;;;20.70;89.00;;;;;;5004125;28;20040;-71
2022/05/03 10:24:31;;;;;;;5.57;3.30;;;21.00;89.80;;;;;;4994193;28;20038;-71
2022/05/03 10:27:02;;;;;;;22.88;3.10;;;21.30;88.40;;;;;;4996198;28;20103;-71
2022/05/03 10:29:33;;;;;;;8.18;3.53;;;21.30;86.80;;;;;;5002533;28;20061;-71
2022/05/03 10:32:08;;;;;;;4.75;2.90;;;21.40;87.00;;;;;;5003645;28;20025;-71
2022/05/03 10:34:40;;;;;;;7.20;3.15;;;21.50;87.10;;;;;;5007862;28;20032;-71
2022/05/03 10:37:28;;;;;;;5.47;3.15;;;21.60;85.90;;;;;;5006065;28;20105;-71
2022/05/03 10:39:58;;;;;;;6.88;3.10;;;21.50;86.10;;;;;;4997204;28;20030;-71
2022/05/03 10:42:28;;;;;;;5.60;2.78;;;21.20;84.50;;;;;;5004483;28;20653;-71
2022/05/03 10:45:14;;;;;;;7.63;3.20;;;20.90;86.00;;;;;;5000360;28;20030;-71
2022/05/03 10:47:49;;;;;;;6.43;3.67;;;21.00;83.20;;;;;;4998174;28;20420;-71
2022/05/03 10:50:15;;;;;;;5.20;3.38;;;21.30;83.20;;;;;;5005548;28;20529;-71
2022/05/03 10:52:56;;;;;;;6.40;3.28;;;21.30;82.00;;;;;;5017867;28;20129;-71
2022/05/03 10:55:32;;;;;;;6.28;3.50;;;21.40;83.60;;;;;;5000901;28;20025;-71
2022/05/03 10:58:16;;;;;;;5.30;3.20;;;22.00;84.60;;;;;;4993893;28;20069;-71
2022/05/03 11:01:10;;;;;;;6.72;2.67;;;22.10;85.90;;;;;;4994017;28;20539;-71
2022/05/03 11:03:41;;;;;;;4.90;2.85;;;22.30;83.20;;;;;;5002807;28;20408;-71
2022/05/03 11:06:19;;;;;;;5.80;3.10;;;22.40;85.60;;;;;;5004282;28;20069;-71
2022/05/03 11:14:21;;;;;;;5.43;3.03;;;22.40;83.40;;;;;;4992795;28;20038;-71
2022/05/03 11:17:04;;;;;;;5.07;2.85;;;22.30;81.90;;;;;;4999920;28;20034;-71
2022/05/03 11:19:31;;;;;;;6.43;2.83;;;22.40;81.70;;;;;;5000388;28;20152;-71
2022/05/03 11:21:58;;;;;;;4.90;2.75;;;22.40;82.70;;;;;;5015258;28;20026;-71
2022/05/03 11:24:30;;;;;;;4.30;2.17;;;22.60;79.50;;;;;;4991357;28;20034;-71
2022/05/03 11:26:58;;;;;;;5.82;2.45;;;22.70;78.80;;;;;;5008466;28;20038;-71
2022/05/03 11:29:28;;;;;;;7.32;3.40;;;22.40;78.80;;;;;;4999652;28;20076;-71
2022/05/03 11:31:55;;;;;;;6.93;2.67;;;22.60;80.50;;;;;;5001634;28;20042;-71
2022/05/03 11:34:21;;;;;;;6.78;2.88;;;22.50;79.50;;;;;;5002609;28;20121;-71
2022/05/03 11:36:50;;;;;;;4.28;2.83;;;22.60;81.20;;;;;;5000748;28;20125;-71
2022/05/03 11:39:16;;;;;;;4.30;2.63;;;22.20;79.80;;;;;;5004328;28;20144;-70
2022/05/03 11:41:43;;;;;;;5.22;2.10;;;22.30;80.00;;;;;;5002384;28;20053;-71
2022/05/03 11:44:10;;;;;;;6.72;2.83;;;22.50;80.00;;;;;;5003792;28;20026;-71
2022/05/03 11:46:38;;;;;;;6.53;3.13;;;22.40;79.10;;;;;;5004428;28;20069;-71
2022/05/03 11:49:08;;;;;;;5.93;2.42;;;22.30;79.20;;;;;;5004060;28;20033;-71
2022/05/03 11:57:05;;;;;;;4.65;2.10;;;22.10;77.80;;;;;;5013621;28;20100;-71
2022/05/03 11:59:32;;;;;;;5.85;2.03;;;21.80;76.70;;;;;;5014507;28;20037;-71
2022/05/03 12:02:20;;;;;;;6.15;2.15;;;21.50;77.30;;;;;;5003177;28;20192;-71
2022/05/03 12:05:04;;;;;;;7.68;1.90;;;21.10;76.80;;;;;;5002425;28;20072;-71
2022/05/03 12:07:42;;;;;;;5.40;2.17;;;21.20;77.50;;;;;;4999121;28;20030;-71
2022/05/03 12:10:20;;;;;;;7.03;2.20;;;21.20;77.60;;;;;;5003257;28;20032;-71
2022/05/03 12:13:03;;;;;;;4.63;2.38;;;21.10;78.80;;;;;;5003913;28;20030;-71
2022/05/03 12:15:30;;;;;;;4.57;2.27;;;21.10;79.10;;;;;;5005040;28;20116;-71
2022/05/03 12:17:59;;;;;;;4.68;1.98;;;21.20;78.80;;;;;;5002007;28;20034;-71
2022/05/03 12:20:25;;;;;;;5.43;2.33;;;21.60;78.10;;;;;;4996445;28;20026;-71
2022/05/03 12:23:15;;;;;;;5.95;1.90;;;21.80;77.40;;;;;;4999142;28;20579;-71
2022/05/03 12:25:43;;;;;;;4.90;2.33;;;22.00;77.70;;;;;;4996816;28;20057;-71
2022/05/03 12:28:09;;;;;;;3.65;2.03;;;21.90;77.60;;;;;;4998490;28;20144;-70
2022/05/03 12:30:35;;;;;;;4.78;1.80;;;21.70;77.90;;;;;;5001240;28;20030;-71
2022/05/03 12:33:04;;;;;;;3.88;2.00;;;22.10;77.00;;;;;;5009281;28;20037;-70
2022/05/03 12:35:32;;;;;;;2.55;1.50;;;21.70;76.20;;;;;;5002646;28;20025;-71
2022/05/03 12:38:19;;;;;;;6.85;2.28;;;22.00;75.90;;;;;;4999652;28;20041;-71
2022/05/03 12:40:52;;;;;;;6.82;2.33;;;21.90;76.50;;;;;;5000046;28;20040;-70
2022/05/03 12:43:21;;;;;;;4.35;1.80;;;22.00;76.30;;;;;;4991265;28;20038;-70
2022/05/03 12:46:00;;;;;;;4.68;1.98;;;21.90;75.50;;;;;;5004549;28;20053;-71
2022/05/03 12:48:27;;;;;;;3.75;2.20;;;21.90;77.50;;;;;;4978384;28;20084;-71
2022/05/03 12:50:57;;;;;;;4.97;1.98;;;21.70;75.40;;;;;;4981339;28;20451;-71
2022/05/03 12:53:28;;;;;;;5.68;1.75;;;22.00;75.40;;;;;;5008017;28;20117;-71
2022/05/03 12:55:56;;;;;;;4.50;2.15;;;22.20;75.90;;;;;;4994071;28;20040;-70
2022/05/03 12:58:22;;;;;;;3.80;2.03;;;22.00;75.30;;;;;;5001553;28;20140;-71
2022/05/03 13:00:57;;;;;;;3.92;2.25;;;21.90;75.40;;;;;;5004581;28;20046;-71
2022/05/03 13:03:23;;;;;;;5.07;1.90;;;21.70;75.60;;;;;;4993610;28;20058;-70
2022/05/03 13:05:50;;;;;;;5.70;2.13;;;21.80;76.10;;;;;;4995934;28;20041;-70
2022/05/03 13:08:17;;;;;;;5.82;2.00;;;21.70;76.40;;;;;;5000829;28;20041;-71
2022/05/03 13:10:43;;;;;;;4.60;2.28;;;21.80;78.50;;;;;;5002233;28;20093;-71
2022/05/03 13:13:08;;;;;;;4.85;1.80;;;21.70;76.20;;;;;;5001412;28;20030;-71
2022/05/03 13:15:34;;;;;;;6.88;1.85;;;21.60;77.40;;;;;;5000618;28;20618;-70
2022/05/03 13:18:00;;;;;;;7.13;2.13;;;21.30;75.40;;;;;;5013675;28;20395;-70
2022/05/03 13:20:29;;;;;;;4.18;2.40;;;21.30;77.20;;;;;;5021241;28;20108;-70
2022/05/03 13:22:55;;;;;;;3.33;1.98;;;21.40;77.00;;;;;;4992972;28;20058;-71
2022/05/03 13:25:21;;;;;;;4.20;2.22;;;21.20;76.50;;;;;;4996069;28;20104;-70
2022/05/03 13:27:48;;;;;;;4.90;2.10;;;21.20;74.40;;;;;;5003710;28;20045;-70
2022/05/03 13:30:15;;;;;;;4.85;1.58;;;21.30;75.40;;;;;;4999035;28;20045;-70
2022/05/03 13:32:41;;;;;;;3.92;1.80;;;21.40;78.00;;;;;;4974581;28;20034;-71
2022/05/03 13:35:08;;;;;;;6.38;2.13;;;21.50;76.70;;;;;;4974176;28;20702;-71
2022/05/03 13:40:30;;;;;;;4.78;2.20;;;21.60;76.10;;;;;;5001379;28;20057;-71
2022/05/03 13:42:59;;;;;;;3.42;2.03;;;21.20;76.30;;;;;;4998347;28;20496;-71
2022/05/03 13:45:26;;;;;;;5.45;2.28;;;21.20;77.20;;;;;;5005228;28;20049;-70
2022/05/03 13:47:52;;;;;;;4.50;2.25;;;21.20;78.00;;;;;;5000219;28;20069;-70
2022/05/03 13:50:18;;;;;;;6.07;1.75;;;21.30;76.20;;;;;;5000247;28;20109;-70
2022/05/03 13:52:43;;;;;;;4.15;2.05;;;21.10;76.80;;;;;;5003027;28;20153;-70
2022/05/03 13:55:10;;;;;;;5.05;1.70;;;21.30;76.10;;;;;;5014274;28;20043;-71